createdAt,value
2018-02-23T00:00:33.208Z,-2.30
2018-02-23T00:03:01.967Z,-2.30
2018-02-23T00:05:30.690Z,-2.30
2018-02-23T00:07:59.426Z,-2.30
2018-02-23T00:10:29.651Z,-2.30
2018-02-23T00:12:58.362Z,-2.30
2018-02-23T00:15:27.142Z,-2.40
2018-02-23T00:17:55.981Z,-2.40
2018-02-23T00:20:25.074Z,-2.50
2018-02-23T00:22:54.066Z,-2.40
2018-02-23T00:25:22.826Z,-2.50
2018-02-23T00:27:52.185Z,-2.50
2018-02-23T00:30:20.938Z,-2.50
2018-02-23T00:32:50.926Z,-2.50
2018-02-23T00:35:20.569Z,-2.50
2018-02-23T00:37:49.654Z,-2.50
2018-02-23T00:40:19.014Z,-2.60
2018-02-23T00:42:48.650Z,-2.50
2018-02-23T00:45:18.756Z,-2.60
2018-02-23T00:47:48.394Z,-2.60
2018-02-23T00:50:17.485Z,-2.70
2018-02-23T00:52:46.450Z,-2.70
2018-02-23T00:55:16.158Z,-2.60
2018-02-23T00:57:44.886Z,-2.60
2018-02-23T01:00:13.895Z,-2.60
2018-02-23T01:02:42.761Z,-2.70
2018-02-23T01:05:11.493Z,-2.70
2018-02-23T01:07:40.255Z,-2.60
2018-02-23T01:10:09.354Z,-2.70
2018-02-23T01:12:38.706Z,-2.70
2018-02-23T01:15:07.414Z,-2.70
2018-02-23T01:17:36.915Z,-2.70
2018-02-23T01:20:06.832Z,-2.60
2018-02-23T01:22:36.610Z,-2.60
2018-02-23T01:25:05.378Z,-2.60
2018-02-23T01:27:34.113Z,-2.60
2018-02-23T01:30:03.299Z,-2.60
2018-02-23T01:32:32.670Z,-2.60
2018-02-23T01:35:02.034Z,-2.60
2018-02-23T01:37:31.689Z,-2.60
2018-02-23T01:40:00.770Z,-2.60
2018-02-23T01:42:29.403Z,-2.60
2018-02-23T01:44:58.511Z,-2.60
2018-02-23T01:47:27.910Z,-2.60
2018-02-23T01:49:57.239Z,-2.60
2018-02-23T01:52:29.906Z,-2.50
2018-02-23T01:54:59.706Z,-2.40
2018-02-23T01:57:28.442Z,-2.40
2018-02-23T01:59:56.997Z,-2.40
2018-02-23T02:02:26.510Z,-2.40
2018-02-23T02:04:55.242Z,-2.50
2018-02-23T02:07:24.110Z,-2.40
2018-02-23T02:09:53.229Z,-2.30
2018-02-23T02:12:22.559Z,-2.30
2018-02-23T02:14:51.258Z,-2.40
2018-02-23T02:17:20.278Z,-2.40
2018-02-23T02:19:49.653Z,-2.40
2018-02-23T02:22:17.713Z,-2.50
2018-02-23T02:24:46.493Z,-2.50
2018-02-23T02:27:15.254Z,-2.40
2018-02-23T02:29:44.130Z,-2.40
2018-02-23T02:32:13.482Z,-2.40
2018-02-23T02:34:42.227Z,-2.30
2018-02-23T02:37:10.949Z,-2.30
2018-02-23T02:39:39.834Z,-2.30
2018-02-23T02:42:08.394Z,-2.40
2018-02-23T02:44:36.951Z,-2.30
2018-02-23T02:47:06.420Z,-2.30
2018-02-23T02:49:37.961Z,-2.30
2018-02-23T02:52:06.682Z,-2.30
2018-02-23T02:54:35.422Z,-2.30
2018-02-23T02:57:04.387Z,-2.40
2018-02-23T02:59:33.486Z,-2.40
2018-02-23T03:02:02.970Z,-2.30
2018-02-23T03:04:32.259Z,-2.40
2018-02-23T03:07:01.607Z,-2.40
2018-02-23T03:09:30.314Z,-2.50
2018-02-23T03:11:59.417Z,-2.40
2018-02-23T03:14:28.165Z,-2.40
2018-02-23T03:16:58.082Z,-2.50
2018-02-23T03:19:27.741Z,-2.50
2018-02-23T03:21:56.822Z,-2.50
2018-02-23T03:24:25.543Z,-2.50
2018-02-23T03:26:54.648Z,-2.50
2018-02-23T03:29:23.958Z,-2.50
2018-02-23T03:31:52.614Z,-2.50
2018-02-23T03:34:21.736Z,-2.50
2018-02-23T03:36:51.062Z,-2.60
2018-02-23T03:39:20.599Z,-2.50
2018-02-23T03:41:49.363Z,-2.50
2018-02-23T03:44:18.465Z,-2.50
2018-02-23T03:46:47.552Z,-2.50
2018-02-23T03:49:17.198Z,-2.50
2018-02-23T03:51:45.914Z,-2.50
2018-02-23T03:54:14.633Z,-2.50
2018-02-23T03:56:44.127Z,-2.50
2018-02-23T03:59:13.842Z,-2.40
2018-02-23T04:01:42.590Z,-2.40
2018-02-23T04:04:11.440Z,-2.40
2018-02-23T04:06:40.962Z,-2.40
2018-02-23T04:09:10.040Z,-2.40
2018-02-23T04:11:39.573Z,-2.50
2018-02-23T04:14:08.675Z,-2.50
2018-02-23T04:16:38.062Z,-2.40
2018-02-23T04:19:07.413Z,-2.40
2018-02-23T04:21:36.170Z,-2.40
2018-02-23T04:24:04.882Z,-2.40
2018-02-23T04:26:33.784Z,-2.30
2018-02-23T04:29:05.890Z,-2.30
2018-02-23T04:31:35.460Z,-2.30
2018-02-23T04:34:08.448Z,-2.40
2018-02-23T04:36:37.321Z,-2.40
2018-02-23T04:39:10.034Z,-2.40
2018-02-23T04:41:41.442Z,-2.30
2018-02-23T04:44:12.104Z,-2.30
2018-02-23T04:46:41.600Z,-2.20
2018-02-23T04:49:11.156Z,-2.20
2018-02-23T04:51:40.872Z,-2.20
2018-02-23T04:54:10.737Z,-2.20
2018-02-23T04:56:40.122Z,-2.30
2018-02-23T04:59:09.474Z,-2.20
2018-02-23T05:01:38.837Z,-2.20
2018-02-23T05:04:07.568Z,-2.20
2018-02-23T05:06:36.586Z,-2.20
2018-02-23T05:09:04.610Z,-2.20
2018-02-23T05:11:33.306Z,-2.20
2018-02-23T05:14:02.679Z,-2.20
2018-02-23T05:16:31.342Z,-2.30
2018-02-23T05:19:00.417Z,-2.20
2018-02-23T05:21:29.986Z,-2.20
2018-02-23T05:23:58.714Z,-2.20
2018-02-23T05:26:27.759Z,-2.20
2018-02-23T05:28:56.280Z,-2.20
2018-02-23T05:31:24.855Z,-2.20
2018-02-23T05:33:53.840Z,-2.20
2018-02-23T05:36:23.039Z,-2.10
2018-02-23T05:38:52.591Z,-2.10
2018-02-23T05:41:22.790Z,-2.20
2018-02-23T05:43:52.443Z,-2.20
2018-02-23T05:46:21.524Z,-2.20
2018-02-23T05:48:51.006Z,-2.20
2018-02-23T05:51:20.245Z,-2.20
2018-02-23T05:53:49.638Z,-2.20
2018-02-23T05:56:19.017Z,-2.20
2018-02-23T05:58:51.303Z,-2.20
2018-02-23T06:01:21.087Z,-2.10
2018-02-23T06:03:50.142Z,-2.20
2018-02-23T06:06:19.564Z,-2.10
2018-02-23T06:08:48.895Z,-2.00
2018-02-23T06:11:18.251Z,-2.00
2018-02-23T06:13:47.622Z,-2.00
2018-02-23T06:16:22.107Z,-1.90
2018-02-23T06:18:55.720Z,-1.80
2018-02-23T06:21:25.086Z,-1.70
2018-02-23T06:23:54.261Z,-1.60
2018-02-23T06:26:23.533Z,-1.60
2018-02-23T06:28:52.871Z,-1.60
2018-02-23T06:31:22.219Z,-1.60
2018-02-23T06:33:51.586Z,-1.50
2018-02-23T06:36:20.948Z,-1.50
2018-02-23T06:38:50.307Z,-1.50
2018-02-23T06:41:19.673Z,-1.50
2018-02-23T06:43:50.035Z,-1.40
2018-02-23T06:46:19.403Z,-1.50
2018-02-23T06:48:49.082Z,-1.20
2018-02-23T06:51:19.447Z,-1.20
2018-02-23T06:53:48.540Z,-1.20
2018-02-23T06:56:18.146Z,-1.00
2018-02-23T06:58:47.306Z,-1.00
2018-02-23T07:01:16.573Z,-1.00
2018-02-23T07:03:45.337Z,-0.90
2018-02-23T07:06:14.574Z,-0.80
2018-02-23T07:08:43.638Z,-0.80
2018-02-23T07:11:13.353Z,-0.60
2018-02-23T07:13:43.346Z,-0.70
2018-02-23T07:16:14.919Z,-0.70
2018-02-23T07:18:45.115Z,-0.50
2018-02-23T07:21:14.630Z,-0.50
2018-02-23T07:23:43.835Z,-0.40
2018-02-23T07:26:13.334Z,-0.40
2018-02-23T07:28:43.556Z,-0.50
2018-02-23T07:31:12.931Z,-0.50
2018-02-23T07:33:42.285Z,-0.50
2018-02-23T07:36:11.011Z,-0.50
2018-02-23T07:38:39.989Z,-0.50
2018-02-23T07:41:08.703Z,-0.40
2018-02-23T07:43:37.694Z,-0.50
2018-02-23T07:46:07.057Z,-0.50
2018-02-23T07:48:36.697Z,-0.30
2018-02-23T07:51:05.254Z,-0.30
2018-02-23T07:53:33.809Z,-0.30
2018-02-23T07:56:02.397Z,-0.30
2018-02-23T07:58:31.081Z,-0.40
2018-02-23T08:00:59.667Z,-0.20
2018-02-23T08:03:33.004Z,-0.10
2018-02-23T08:11:54.358Z,0.20
2018-02-23T08:25:01.338Z,0.60
2018-02-23T08:27:31.859Z,0.60
2018-02-23T08:30:02.071Z,0.60
2018-02-23T08:35:34.370Z,0.70
2018-02-23T09:55:03.182Z,5.20
2018-02-23T09:57:46.640Z,5.10
2018-02-23T10:00:17.890Z,5.60
2018-02-23T10:02:47.448Z,5.30
2018-02-23T10:05:18.038Z,5.00
2018-02-23T10:07:47.269Z,4.80
2018-02-23T10:10:16.489Z,4.60
2018-02-23T10:12:45.754Z,4.50
2018-02-23T10:15:15.134Z,4.30
2018-02-23T10:17:45.824Z,4.30
2018-02-23T10:20:14.886Z,4.40
2018-02-23T10:22:43.786Z,4.20
2018-02-23T10:25:13.836Z,4.10
2018-02-23T10:27:44.092Z,4.00
2018-02-23T10:30:13.410Z,4.00
2018-02-23T10:32:43.940Z,3.80
2018-02-23T10:35:13.150Z,3.60
2018-02-23T10:37:43.529Z,3.60
2018-02-23T10:40:15.586Z,3.50
2018-02-23T10:42:45.884Z,3.40
2018-02-23T10:45:15.124Z,3.40
2018-02-23T10:47:44.346Z,3.20
2018-02-23T10:50:14.701Z,3.00
2018-02-23T10:52:44.611Z,3.00
2018-02-23T10:55:14.734Z,3.10
2018-02-23T10:57:44.402Z,3.30
2018-02-23T11:00:15.012Z,3.40
2018-02-23T11:02:44.734Z,3.80
2018-02-23T11:05:13.642Z,3.80
2018-02-23T11:07:42.990Z,3.70
2018-02-23T11:10:12.352Z,3.50
2018-02-23T11:12:41.713Z,3.20
2018-02-23T11:15:11.081Z,3.10
2018-02-23T11:17:39.859Z,3.10
2018-02-23T11:20:08.876Z,3.10
2018-02-23T11:22:38.842Z,3.20
2018-02-23T11:25:09.822Z,3.40
2018-02-23T11:27:39.221Z,3.50
2018-02-23T11:30:10.500Z,3.70
2018-02-23T11:35:22.097Z,4.20
2018-02-23T11:37:55.887Z,4.40
2018-02-23T11:43:08.346Z,4.70
2018-02-23T11:45:43.260Z,4.90
2018-02-23T11:48:14.404Z,4.80
2018-02-23T11:50:49.266Z,4.60
2018-02-23T11:53:23.035Z,4.40
2018-02-23T11:55:59.810Z,4.30
2018-02-23T11:58:35.459Z,4.00
2018-02-23T12:01:08.930Z,3.80
2018-02-23T12:15:21.484Z,3.80
2018-02-23T12:28:40.863Z,4.10
2018-02-23T17:52:21.834Z,-0.10
2018-02-23T17:54:52.202Z,0.00
2018-02-23T17:57:22.906Z,-0.10
2018-02-23T17:59:52.862Z,-0.10
2018-02-23T18:05:17.925Z,-0.20
2018-02-23T18:07:47.317Z,-0.20
2018-02-23T18:10:43.545Z,-0.10
2018-02-23T18:13:13.380Z,-0.20
2018-02-23T18:15:42.514Z,-0.20
2018-02-23T18:18:11.723Z,-0.20
2018-02-23T18:20:41.064Z,-0.30
2018-02-23T18:23:10.388Z,-0.30
2018-02-23T18:25:39.726Z,-0.30
2018-02-23T18:28:09.067Z,-0.20
2018-02-23T18:30:38.396Z,-0.20
2018-02-23T18:33:08.072Z,-0.30
2018-02-23T18:35:38.342Z,-0.30
2018-02-23T18:38:07.514Z,-0.30
2018-02-23T18:40:36.767Z,-0.30
2018-02-23T18:43:06.104Z,-0.20
2018-02-23T18:45:35.711Z,-0.20
2018-02-23T18:48:05.791Z,-0.30
2018-02-23T18:50:35.133Z,-0.30
2018-02-23T18:53:04.740Z,-0.30
2018-02-23T18:55:33.850Z,-0.40
2018-02-23T19:05:02.888Z,-0.30
2018-02-23T19:07:32.236Z,-0.20
2018-02-23T19:10:07.232Z,-0.30
2018-02-23T20:15:09.887Z,-0.70
2018-02-23T20:17:39.088Z,-0.70
2018-02-23T20:20:10.644Z,-0.60
2018-02-23T20:22:39.790Z,-0.60
2018-02-23T20:25:09.992Z,-0.60
2018-02-23T20:27:39.329Z,-0.60
2018-02-23T20:33:43.568Z,-0.70
2018-02-23T20:38:52.412Z,-0.60
2018-02-23T20:41:22.034Z,-0.60
2018-02-23T20:43:52.237Z,-0.70
2018-02-23T20:46:21.402Z,-0.70
2018-02-23T20:48:50.802Z,-0.70
2018-02-23T20:51:20.387Z,-0.70
2018-02-23T20:53:49.435Z,-0.80
2018-02-23T20:56:19.151Z,-0.70
2018-02-23T20:58:49.155Z,-0.70
2018-02-23T21:01:18.758Z,-0.70
2018-02-23T21:03:47.841Z,-0.70
2018-02-23T21:06:17.191Z,-0.70
2018-02-23T21:08:46.834Z,-0.70
2018-02-23T21:11:15.909Z,-0.70
2018-02-23T21:13:45.230Z,-0.70
2018-02-23T21:16:14.565Z,-0.80
2018-02-23T21:18:44.250Z,-0.70
2018-02-23T21:21:13.546Z,-0.80
2018-02-23T21:23:42.570Z,-0.70
2018-02-23T21:26:11.916Z,-0.70
2018-02-23T21:28:41.315Z,-0.70
2018-02-23T21:31:09.720Z,-0.70
2018-02-23T21:33:38.493Z,-0.80
2018-02-23T21:36:07.417Z,-0.80
2018-02-23T21:38:36.166Z,-0.80
2018-02-23T21:41:05.138Z,-0.80
2018-02-23T21:43:34.292Z,-0.70
2018-02-23T21:46:03.710Z,-0.80
2018-02-23T21:48:33.057Z,-0.80
2018-02-23T21:51:02.341Z,-0.80
2018-02-23T21:53:30.957Z,-0.80
2018-02-23T21:56:00.018Z,-0.90
2018-02-23T21:58:28.868Z,-0.90
2018-02-23T22:00:57.971Z,-0.90
2018-02-23T22:03:27.039Z,-0.90
2018-02-23T22:05:55.789Z,-0.90
2018-02-23T22:08:25.212Z,-0.90
2018-02-23T22:10:54.906Z,-0.90
2018-02-23T22:13:24.823Z,-0.90
2018-02-23T22:15:54.810Z,-0.90
2018-02-23T22:18:24.168Z,-1.00
2018-02-23T22:20:53.079Z,-1.00
2018-02-23T22:23:22.679Z,-1.00
2018-02-23T22:25:51.553Z,-1.00
2018-02-23T22:28:23.867Z,-0.90
2018-02-23T22:30:52.883Z,-0.90
2018-02-23T22:33:22.283Z,-0.90
2018-02-23T22:35:51.609Z,-0.90
2018-02-23T22:38:20.370Z,-0.90
2018-02-23T22:40:49.114Z,-0.90
2018-02-23T22:43:17.937Z,-0.90
2018-02-23T22:45:46.646Z,-0.80
2018-02-23T22:48:15.326Z,-0.80
2018-02-23T22:50:46.973Z,-0.90
2018-02-23T22:53:16.201Z,-0.90
2018-02-23T22:55:45.714Z,-0.80
2018-02-23T22:58:15.186Z,-0.80
2018-02-23T23:00:44.174Z,-0.80
2018-02-23T23:03:13.701Z,-0.80
2018-02-23T23:05:42.786Z,-0.80
2018-02-23T23:08:12.133Z,-0.80
2018-02-23T23:10:40.734Z,-0.80
2018-02-23T23:13:09.770Z,-0.90
2018-02-23T23:15:39.202Z,-0.90
2018-02-23T23:18:08.800Z,-0.90
2018-02-23T23:20:38.853Z,-0.90
2018-02-23T23:23:08.186Z,-0.90
2018-02-23T23:25:36.963Z,-0.80
2018-02-23T23:28:06.029Z,-0.90
2018-02-23T23:30:35.220Z,-0.90
2018-02-23T23:33:04.826Z,-0.90
2018-02-23T23:35:34.943Z,-0.90
2018-02-23T23:38:04.382Z,-0.90
2018-02-23T23:40:37.675Z,-0.90
2018-02-23T23:43:07.239Z,-0.90
2018-02-23T23:45:37.373Z,-0.90
2018-02-23T23:48:07.094Z,-0.90
2018-02-23T23:50:36.021Z,-1.00
2018-02-23T23:53:05.497Z,-1.00
2018-02-23T23:55:34.766Z,-0.90
2018-02-23T23:58:04.194Z,-1.00
